Nearby METAR Reports

 

KHOB - Hobbs, New Mexico, USA
Distance from station: S 40mi, 65km
Updated: Fri, 19-Jul-2019 8:50am MDT
Clear
Clear
 Wind from S
Wind: S 14 mph , 22 km/h
Temperature: 86°F , 30°C
Dew Point: 57°F , 14°C
Humidity: 38%
Barometer: 30.00 inHg , 1015.9 hPa
Clouds: Clear
Visibility: 10 miles , 16 km
2019/07/19 14:50 KHOB 191450Z 17012KT 10SM SKC 30/14 A3000
KGNC - Seminole, Texas, USA
Distance from station: SE 55mi, 89km
Updated: Fri, 19-Jul-2019 8:35am MDT
Clear
Clear
 Wind from S
Wind: S 16 mph , 26 km/h, Gust: 20 mph , 31 km/h
Temperature: 82°F , 28°C
Heat Index: 82°F , 28°C
Dew Point: 59°F , 15°C
Humidity: 45%
Barometer: 30.02 inHg , 1016.6 hPa
Clouds: Clear
Visibility: 10 miles , 16 km
2019/07/19 14:35 KGNC 191435Z AUTO 19014G17KT 10SM CLR 28/15 A3002 RMK AO2 T02820150
 
KROW - Roswell, New Mexico, USA
Distance from station: W 67mi, 108km
Updated: Fri, 19-Jul-2019 8:51am MDT
Clear
Clear
 Wind from S
Wind: S 18 mph , 30 km/h
Temperature: 88°F , 31°C
Dew Point: 57°F , 14°C
Humidity: 35%
Barometer: 29.95 inHg , 1014.2 hPa
Clouds: Clear
Visibility: 10 miles , 16 km
2019/07/19 14:51 KROW 191451Z 17016KT 10SM CLR 31/14 A2995 RMK AO2 SLP060 T03060139 53011
KATS - Artesia, New Mexico, USA
Distance from station: WSW 71mi, 114km
Updated: Fri, 19-Jul-2019 8:55am MDT
Clear
Clear
 Wind from SSE
Wind: SSE 16 mph , 26 km/h
Temperature: 84°F , 29°C
Heat Index: 84°F , 29°C
Dew Point: 61°F , 16°C
Humidity: 45%
Barometer: 29.97 inHg , 1014.9 hPa
Clouds: Clear
Visibility: 10 miles , 16 km
2019/07/19 14:55 KATS 191455Z AUTO 16014KT 10SM CLR 29/16 A2997 RMK AO2
 
KCVS - Cannon AFB,Clovis, New Mexico, USA
Distance from station: 0 78mi, 125km
Updated: Fri, 19-Jul-2019 7:58am MDT
Clear
Clear
 Wind from S
Wind: S 12 mph , 19 km/h
Temperature: 77°F , 25°C
Dew Point: 59°F , 15°C
Humidity: 54%
Clouds: Clear
Visibility: 10 miles , 16 km
2019/07/19 13:58 KCVS 191358Z AUTO 18010KT 10SM CLR 25/15 M RMK AO2 SLPNO T02510148 $
KE11 - Andrews, Texas, USA
Distance from station: SE 78mi, 126km
Updated: Fri, 19-Jul-2019 8:55am MDT
Clear
Clear
 Wind from SSW
Wind: SSW 16 mph , 26 km/h, Gust: 22 mph , 35 km/h
Temperature: 84°F , 29°C
Heat Index: 84°F , 29°C
Dew Point: 61°F , 16°C
Humidity: 45%
Barometer: 29.99 inHg , 1015.6 hPa
Clouds: Clear
Visibility: 10 miles , 16 km
2019/07/19 14:55 KE11 191455Z AUTO 20014G19KT 10SM CLR 29/16 A2999 RMK AO2 T02860163
 
KCNM - Carlsbad, New Mexico, USA
Distance from station: SW 82mi, 132km
Updated: Fri, 19-Jul-2019 8:53am MDT
Clear
Clear
 Wind from SSE
Wind: SSE 14 mph , 22 km/h
Temperature: 86°F , 30°C
Dew Point: 57°F , 14°C
Humidity: 38%
Barometer: 29.94 inHg , 1013.9 hPa
Clouds: Clear
Visibility: 10 miles , 16 km
2019/07/19 14:53 KCNM 191453Z AUTO 16012KT 10SM CLR 30/14 A2994 RMK AO2 SLP069 T03000144 51007
KCVN - Clovis Muni, New Mexico, USA
Distance from station: N 83mi, 133km
Updated: Fri, 19-Jul-2019 8:56am MDT
Mostly cloudy
Mostly cloudy
 Wind from S
Wind: S 18 mph , 30 km/h
Temperature: 84°F , 29°C
Heat Index: 84°F , 29°C
Dew Point: 59°F , 15°C
Humidity: 43%
Barometer: 30.00 inHg , 1015.9 hPa
Clouds: Mostly cloudy
Visibility: 10 miles , 16 km
Cloud details: Mostly cloudy 200 ft
2019/07/19 14:56 KCVN 191456Z AUTO 19016KT 10SM BKN002 29/15 A3000 RMK AO2 SLP099 6//// T02940150 51003 PNO $
 
KLBB - Lubbock, Texas, USA
Distance from station: ENE 92mi, 149km
Updated: Fri, 19-Jul-2019 8:53am MDT
Few Clouds
Few Clouds
 Wind from S
Wind: S 23 mph , 37 km/h, Gust: 28 mph , 44 km/h
Temperature: 82°F , 28°C
Heat Index: 83°F , 28°C
Dew Point: 63°F , 17°C
Humidity: 51%
Barometer: 29.97 inHg , 1014.9 hPa
Clouds: Few Clouds
Visibility: 10 miles , 16 km
Cloud details: Few Clouds 25000 ft
2019/07/19 14:53 KLBB 191453Z 19020G24KT 10SM FEW250 28/17 A2997 RMK AO2 SLP086 T02830167 53004 $
KINK - Wink, Texas, USA
Distance from station: S 101mi, 163km
Updated: Fri, 19-Jul-2019 8:53am MDT
Clear
Clear
 Wind from SSE
Wind: SSE 17 mph , 28 km/h
Temperature: 86°F , 30°C
Heat Index: 86°F , 30°C
Dew Point: 61°F , 16°C
Humidity: 43%
Barometer: 29.94 inHg , 1013.9 hPa
Clouds: Clear
Visibility: 10 miles , 16 km
2019/07/19 14:53 KINK 191453Z AUTO 15015KT 10SM CLR 30/16 A2994 RMK AO2 SLP085 T03000156 51007
 
KMAF - Midland, Texas, USA
Distance from station: SE 111mi, 179km
Updated: Fri, 19-Jul-2019 8:53am MDT
Clear
Clear
 Wind from S
Wind: S 18 mph , 30 km/h
Temperature: 84°F , 29°C
Heat Index: 85°F , 29°C
Dew Point: 64°F , 18°C
Humidity: 51%
Barometer: 29.98 inHg , 1015.2 hPa
Clouds: Clear
Visibility: 10 miles , 16 km
2019/07/19 14:53 KMAF 191453Z 18016KT 10SM CLR 29/18 A2998 RMK AO2 SLP096 T02940178 51005
KSRR - Sierra B/Ruidoso, New Mexico, USA
Distance from station: W 127mi, 204km
Updated: Fri, 19-Jul-2019 8:55am MDT
Clear
Clear
 Wind from calm
Wind: Calm
Temperature: 77°F , 25°C
Dew Point: 46°F , 8°C
Humidity: 34%
Barometer: 30.22 inHg , 1023.4 hPa
Clouds: Clear
Visibility: 10 miles , 16 km
2019/07/19 14:55 KSRR 191455Z AUTO 00000KT 10SM CLR 25/08 A3022 RMK AO2
 
KGDP - Guadalupe Pass, Texas, USA
Distance from station: SW 130mi, 209km
Updated: Fri, 19-Jul-2019 8:51am MDT
Clear
Clear
 Wind from WSW
Wind: WSW 22 mph , 35 km/h
Temperature: 81°F , 27°C
Dew Point: 54°F , 12°C
Humidity: 39%
Barometer: 30.14 inHg , 1020.7 hPa
Clouds: Clear
Visibility: 10 miles , 16 km
2019/07/19 14:51 KGDP 191451Z AUTO 25019KT 10SM CLR 27/12 A3014 RMK AO2 SLP107 T02670117 53008